createdAt,value
2024-05-09T00:02:21.307Z,22.67
2024-05-09T00:04:53.764Z,29.67
2024-05-09T00:07:23.540Z,29.40
2024-05-09T00:09:53.321Z,32.22
2024-05-09T00:12:26.049Z,31.92
2024-05-09T00:14:56.100Z,33.95
2024-05-09T00:17:26.345Z,33.33
2024-05-09T00:19:58.767Z,35.42
2024-05-09T00:22:29.827Z,23.95
2024-05-09T00:24:59.572Z,34.17
2024-05-09T00:27:29.771Z,34.20
2024-05-09T00:30:00.598Z,33.55
2024-05-09T00:32:30.460Z,31.40
2024-05-09T00:35:03.082Z,34.50
2024-05-09T00:37:33.473Z,35.07
2024-05-09T00:40:03.660Z,34.65
2024-05-09T00:42:33.409Z,33.10
2024-05-09T00:45:03.168Z,34.30
2024-05-09T00:47:33.273Z,32.42
2024-05-09T00:50:09.911Z,30.52
2024-05-09T00:52:42.790Z,33.22
2024-05-09T00:55:15.851Z,30.05
2024-05-09T00:57:46.483Z,33.13
2024-05-09T01:00:26.109Z,32.83
2024-05-09T01:03:01.048Z,30.50
2024-05-09T01:05:34.929Z,30.98
2024-05-09T01:08:05.643Z,34.88
2024-05-09T01:10:36.421Z,30.80
2024-05-09T01:13:07.652Z,34.63
2024-05-09T01:15:38.041Z,31.85
2024-05-09T01:18:10.621Z,28.35
2024-05-09T01:20:45.303Z,31.65
2024-05-09T01:23:18.103Z,36.20
2024-05-09T01:25:48.859Z,33.03
2024-05-09T01:28:19.931Z,33.88
2024-05-09T01:30:50.268Z,31.27
2024-05-09T01:33:20.632Z,31.27
2024-05-09T01:35:50.545Z,34.67
2024-05-09T01:38:23.008Z,33.10
2024-05-09T01:40:52.923Z,32.37
2024-05-09T01:43:23.892Z,35.00
2024-05-09T01:45:53.652Z,37.67
2024-05-09T01:48:23.538Z,35.00
2024-05-09T01:50:53.579Z,35.75
2024-05-09T01:53:26.143Z,31.95
2024-05-09T01:55:56.355Z,32.95
2024-05-09T01:58:26.110Z,34.05
2024-05-09T02:00:55.827Z,32.17
2024-05-09T02:03:25.708Z,36.70
2024-05-09T02:05:55.687Z,39.58
2024-05-09T02:08:28.490Z,32.42
2024-05-09T02:10:58.438Z,36.57
2024-05-09T02:13:28.260Z,32.55
2024-05-09T02:15:58.684Z,35.22
2024-05-09T02:18:28.544Z,37.55
2024-05-09T02:20:58.442Z,34.10
2024-05-09T02:23:30.981Z,35.45
2024-05-09T02:26:00.825Z,33.57
2024-05-09T02:28:30.605Z,33.35
2024-05-09T02:31:00.322Z,35.67
2024-05-09T02:33:31.026Z,35.13
2024-05-09T02:36:00.949Z,35.75
2024-05-09T02:38:33.536Z,33.50
2024-05-09T02:41:00.773Z,31.50
2024-05-09T02:43:30.615Z,35.85
2024-05-09T02:45:57.748Z,35.15
2024-05-09T02:48:27.874Z,35.25
2024-05-09T02:50:55.086Z,30.95
2024-05-09T02:53:24.856Z,36.10
2024-05-09T02:55:54.746Z,35.42
2024-05-09T02:58:24.503Z,35.60
2024-05-09T03:00:51.644Z,34.25
2024-05-09T03:03:21.688Z,34.10
2024-05-09T03:05:49.139Z,34.45
2024-05-09T03:08:19.062Z,35.28
2024-05-09T03:10:46.317Z,33.42
2024-05-09T03:13:19.169Z,32.78
2024-05-09T03:15:46.286Z,29.92
2024-05-09T03:18:16.284Z,27.95
2024-05-09T03:20:44.718Z,27.42
2024-05-09T03:23:14.681Z,27.60
2024-05-09T03:25:41.823Z,25.80
2024-05-09T03:28:11.638Z,26.52
2024-05-09T03:30:43.113Z,25.48
2024-05-09T03:33:15.365Z,26.30
2024-05-09T03:35:43.455Z,27.10
2024-05-09T03:38:13.306Z,31.88
2024-05-09T03:40:48.478Z,35.92
2024-05-09T03:43:19.814Z,37.25
2024-05-09T03:45:50.800Z,37.17
2024-05-09T03:48:21.354Z,38.53
2024-05-09T03:50:49.010Z,35.53
2024-05-09T03:53:19.205Z,36.88
2024-05-09T03:55:47.584Z,36.80
2024-05-09T03:58:18.975Z,33.35
2024-05-09T04:00:46.244Z,33.83
2024-05-09T04:03:19.035Z,34.05
2024-05-09T04:05:46.546Z,37.63
2024-05-09T04:08:17.094Z,34.13
2024-05-09T04:10:44.391Z,35.42
2024-05-09T04:13:14.135Z,33.92
2024-05-09T04:15:41.325Z,34.97
2024-05-09T04:18:11.274Z,37.55
2024-05-09T04:20:41.594Z,34.58
2024-05-09T04:23:14.860Z,37.03
2024-05-09T04:28:12.860Z,35.33
2024-05-09T04:30:41.673Z,36.05
2024-05-09T04:33:14.278Z,36.17
2024-05-09T04:35:45.308Z,37.63
2024-05-09T04:38:17.757Z,35.80
2024-05-09T04:40:47.788Z,34.50
2024-05-09T04:43:19.620Z,38.42
2024-05-09T04:45:46.976Z,40.75
2024-05-09T04:48:17.228Z,33.78
2024-05-09T04:50:47.179Z,33.28
2024-05-09T04:53:19.015Z,34.78
2024-05-09T04:55:46.447Z,30.85
2024-05-09T04:58:16.269Z,31.67
2024-05-09T05:00:45.754Z,36.60
2024-05-09T05:03:16.653Z,33.47
2024-05-09T05:05:47.037Z,28.88
2024-05-09T05:08:18.822Z,31.83
2024-05-09T05:10:47.942Z,30.45
2024-05-09T05:13:20.569Z,32.17
2024-05-09T05:15:49.667Z,33.80
2024-05-09T05:18:19.973Z,32.05
2024-05-09T05:20:50.401Z,29.52
2024-05-09T05:23:22.378Z,31.10
2024-05-09T05:25:52.275Z,29.65
2024-05-09T05:28:22.642Z,31.88
2024-05-09T05:30:50.189Z,28.75
2024-05-09T05:33:22.584Z,30.58
2024-05-09T05:35:54.371Z,31.85
2024-05-09T05:38:27.409Z,28.20
2024-05-09T05:40:55.752Z,29.00
2024-05-09T05:43:25.745Z,27.80
2024-05-09T05:45:53.033Z,25.20
2024-05-09T05:48:23.106Z,29.17
2024-05-09T05:50:50.399Z,27.65
2024-05-09T05:53:22.869Z,26.00
2024-05-09T05:55:50.130Z,26.23
2024-05-09T05:58:20.367Z,25.92
2024-05-09T06:00:51.089Z,27.75
2024-05-09T06:03:20.894Z,26.35
2024-05-09T06:05:48.131Z,28.17
2024-05-09T06:08:18.193Z,27.08
2024-05-09T06:10:48.118Z,26.95
2024-05-09T06:13:18.185Z,27.45
2024-05-09T06:15:45.409Z,25.63
2024-05-09T06:18:17.443Z,28.13
2024-05-09T06:20:45.190Z,25.90
2024-05-09T06:23:18.128Z,25.63
2024-05-09T06:25:50.575Z,25.77
2024-05-09T06:28:20.346Z,24.10
2024-05-09T06:30:47.462Z,25.08
2024-05-09T06:33:17.578Z,22.58
2024-05-09T06:36:06.250Z,22.70
2024-05-09T06:38:38.286Z,22.92
2024-05-09T06:41:08.280Z,22.27
2024-05-09T06:44:06.423Z,24.83
2024-05-09T06:46:33.939Z,20.83
2024-05-09T06:49:08.363Z,21.38
2024-05-09T06:51:36.744Z,19.63
2024-05-09T06:54:08.371Z,20.92
2024-05-09T06:56:39.834Z,19.13
2024-05-09T06:59:10.234Z,19.65
2024-05-09T07:01:37.863Z,19.27
2024-05-09T07:04:07.920Z,19.50
2024-05-09T07:06:35.163Z,21.02
2024-05-09T07:09:04.949Z,20.23
2024-05-09T07:11:33.366Z,16.90
2024-05-09T07:14:06.278Z,18.33
2024-05-09T07:16:35.257Z,19.13
2024-05-09T07:19:05.287Z,16.77
2024-05-09T07:21:32.650Z,18.27
2024-05-09T07:24:02.393Z,17.45
2024-05-09T07:26:29.671Z,15.07
2024-05-09T07:29:00.626Z,14.80
2024-05-09T07:31:31.673Z,13.90
2024-05-09T07:34:01.872Z,13.98
2024-05-09T07:36:29.303Z,14.80
2024-05-09T07:38:59.084Z,14.13
2024-05-09T07:41:26.368Z,14.85
2024-05-09T07:43:56.123Z,13.90
2024-05-09T07:47:14.668Z,14.63
2024-05-09T07:50:55.892Z,13.50
2024-05-09T07:53:27.034Z,15.23
2024-05-09T07:54:52.994Z,12.65
2024-05-09T07:57:20.352Z,12.38
2024-05-09T07:59:50.180Z,12.88
2024-05-09T08:02:17.472Z,12.40
2024-05-09T08:04:51.185Z,12.73
2024-05-09T08:07:20.173Z,11.40
2024-05-09T08:09:51.009Z,11.90
2024-05-09T08:12:21.096Z,11.93
2024-05-09T08:14:48.257Z,10.77
2024-05-09T08:17:18.263Z,11.18
2024-05-09T08:19:48.271Z,10.75
2024-05-09T08:22:18.152Z,11.80
2024-05-09T08:24:46.814Z,11.00
2024-05-09T08:27:16.633Z,10.55
2024-05-09T08:29:44.029Z,11.05
2024-05-09T08:32:14.880Z,12.20
2024-05-09T08:34:44.382Z,11.25
2024-05-09T08:37:22.363Z,11.32
2024-05-09T08:39:52.111Z,10.95
2024-05-09T08:42:25.096Z,11.20
2024-05-09T08:44:52.725Z,10.57
2024-05-09T08:47:22.969Z,10.63
2024-05-09T08:49:51.744Z,10.55
2024-05-09T08:52:24.146Z,9.68
2024-05-09T08:54:51.452Z,10.40
2024-05-09T08:57:23.124Z,11.23
2024-05-09T08:59:53.051Z,9.80
2024-05-09T09:02:24.770Z,9.70
2024-05-09T09:05:00.828Z,9.35
2024-05-09T09:07:35.779Z,8.55
2024-05-09T09:10:07.087Z,10.02
2024-05-09T09:12:38.617Z,8.07
2024-05-09T09:15:06.328Z,9.98
2024-05-09T09:17:36.219Z,9.75
2024-05-09T09:20:04.517Z,10.02
2024-05-09T09:22:39.868Z,11.18
2024-05-09T09:25:07.252Z,10.17
2024-05-09T09:27:37.205Z,10.60
2024-05-09T09:30:08.933Z,9.40
2024-05-09T09:32:43.416Z,10.13
2024-05-09T09:35:10.655Z,10.85
2024-05-09T09:37:44.238Z,12.07
2024-05-09T09:40:18.684Z,11.45
2024-05-09T09:42:52.976Z,10.43
2024-05-09T09:45:20.472Z,7.95
2024-05-09T09:47:51.398Z,8.68
2024-05-09T09:50:27.310Z,8.77
2024-05-09T09:53:06.330Z,8.27
2024-05-09T09:55:33.536Z,8.55
2024-05-09T09:58:03.746Z,7.03
2024-05-09T10:00:33.694Z,8.82
2024-05-09T10:03:06.967Z,7.78
2024-05-09T10:05:34.969Z,8.88
2024-05-09T10:08:10.023Z,7.53
2024-05-09T10:10:37.367Z,7.32
2024-05-09T10:13:08.671Z,7.60
2024-05-09T10:15:45.822Z,7.68
2024-05-09T10:18:16.128Z,7.18
2024-05-09T10:20:44.569Z,7.93
2024-05-09T10:23:30.964Z,10.30
2024-05-09T10:26:01.668Z,7.68
2024-05-09T10:28:32.011Z,7.55
2024-05-09T10:31:10.548Z,7.55
2024-05-09T10:33:41.873Z,8.15
2024-05-09T10:36:12.806Z,7.28
2024-05-09T10:38:46.509Z,7.68
2024-05-09T10:41:14.200Z,12.20
2024-05-09T10:43:45.530Z,7.22
2024-05-09T10:46:13.516Z,7.20
2024-05-09T10:48:45.592Z,7.43
2024-05-09T10:51:13.912Z,8.98
2024-05-09T10:53:47.468Z,9.23
2024-05-09T10:56:15.287Z,8.63
2024-05-09T10:58:45.120Z,9.13
2024-05-09T11:01:13.468Z,8.00
2024-05-09T11:03:43.797Z,8.27
2024-05-09T11:06:11.651Z,8.88
2024-05-09T11:08:42.271Z,7.93
2024-05-09T11:11:12.298Z,7.75
2024-05-09T11:13:43.866Z,7.40
2024-05-09T11:16:19.754Z,8.35
2024-05-09T11:18:57.952Z,7.07
2024-05-09T11:21:25.754Z,7.03
2024-05-09T11:23:56.168Z,9.00
2024-05-09T11:26:29.798Z,7.55
2024-05-09T11:28:59.868Z,7.80
2024-05-09T11:31:27.341Z,8.57
2024-05-09T11:33:57.637Z,7.75
2024-05-09T11:36:27.414Z,6.30
2024-05-09T11:38:57.220Z,7.38
2024-05-09T11:41:27.299Z,9.05
2024-05-09T11:43:57.947Z,8.02
2024-05-09T11:46:25.631Z,7.32
2024-05-09T11:48:56.550Z,7.43
2024-05-09T11:51:23.835Z,11.45
2024-05-09T11:53:53.842Z,9.93
2024-05-09T11:56:20.991Z,7.90
2024-05-09T11:58:53.374Z,7.15
2024-05-09T12:01:21.340Z,7.37
2024-05-09T12:03:54.674Z,7.43
2024-05-09T12:06:22.143Z,6.70
2024-05-09T12:08:53.097Z,5.35
2024-05-09T12:11:20.290Z,5.72
2024-05-09T12:13:55.918Z,7.97
2024-05-09T12:16:23.267Z,6.32
2024-05-09T12:18:53.355Z,7.47
2024-05-09T12:21:20.590Z,5.65
2024-05-09T12:23:50.325Z,4.20
2024-05-09T12:26:17.474Z,4.35
2024-05-09T12:28:47.218Z,5.35
2024-05-09T12:31:17.202Z,5.63
2024-05-09T12:33:47.106Z,4.30
2024-05-09T12:36:14.363Z,5.10
2024-05-09T12:38:44.098Z,6.18
2024-05-09T12:41:11.212Z,4.63
2024-05-09T12:43:40.967Z,4.85
2024-05-09T12:46:08.382Z,4.78
2024-05-09T12:48:40.947Z,4.95
2024-05-09T12:51:08.685Z,5.18
2024-05-09T12:53:38.978Z,5.40
2024-05-09T12:56:09.213Z,4.80
2024-05-09T12:58:39.403Z,6.60
2024-05-09T13:01:06.653Z,4.57
2024-05-09T13:03:36.793Z,5.07
2024-05-09T13:06:06.851Z,7.70
2024-05-09T13:08:37.219Z,4.95
2024-05-09T13:11:04.665Z,5.85
2024-05-09T13:13:34.391Z,5.80
2024-05-09T13:16:01.740Z,5.60
2024-05-09T13:18:33.438Z,7.55
2024-05-09T13:21:00.771Z,7.22
2024-05-09T13:23:34.100Z,8.18
2024-05-09T13:28:32.348Z,11.50
2024-05-09T13:30:59.717Z,8.43
2024-05-09T13:33:29.891Z,8.13
2024-05-09T13:35:57.133Z,7.00
2024-05-09T13:38:26.975Z,8.65
2024-05-09T13:40:56.888Z,8.13
2024-05-09T13:43:26.970Z,8.98
2024-05-09T13:45:55.738Z,7.63
2024-05-09T13:48:25.629Z,8.82
2024-05-09T13:50:52.827Z,9.30
2024-05-09T13:53:22.600Z,7.30
2024-05-09T13:55:49.884Z,10.95
2024-05-09T13:58:23.398Z,9.65
2024-05-09T14:00:50.904Z,11.02
2024-05-09T14:03:21.467Z,8.07
2024-05-09T14:07:14.332Z,8.38
2024-05-09T14:09:45.165Z,6.60
2024-05-09T14:12:14.929Z,6.82
2024-05-09T14:14:42.080Z,7.22
2024-05-09T14:17:11.855Z,6.88
2024-05-09T14:19:39.542Z,7.55
2024-05-09T14:22:09.957Z,7.15
2024-05-09T14:24:39.936Z,6.47
2024-05-09T14:27:09.687Z,6.32
2024-05-09T14:29:36.890Z,6.05
2024-05-09T14:32:07.509Z,8.52
2024-05-09T14:34:34.775Z,6.13
2024-05-09T14:37:04.725Z,5.25
2024-05-09T14:39:31.899Z,8.00
2024-05-09T14:42:04.234Z,7.75
2024-05-09T14:44:31.424Z,6.95
2024-05-09T14:47:01.377Z,5.13
2024-05-09T14:49:28.601Z,5.78
2024-05-09T14:51:58.470Z,5.63
2024-05-09T14:54:25.632Z,5.35
2024-05-09T14:56:56.684Z,5.75
2024-05-09T14:59:26.425Z,5.65
2024-05-09T15:01:56.266Z,5.68
2024-05-09T15:04:26.904Z,5.82
2024-05-09T15:06:54.811Z,5.63
2024-05-09T15:09:24.655Z,4.95
2024-05-09T15:11:51.853Z,5.05
2024-05-09T15:14:23.286Z,5.00
2024-05-09T15:16:53.218Z,6.20
2024-05-09T15:19:23.228Z,5.55
2024-05-09T15:21:50.453Z,6.03
2024-05-09T15:24:20.289Z,4.95
2024-05-09T15:26:47.399Z,4.18
2024-05-09T15:29:17.246Z,6.50
2024-05-09T15:31:44.470Z,6.47
2024-05-09T15:34:16.867Z,5.78
2024-05-09T15:36:44.180Z,6.07
2024-05-09T15:39:14.210Z,4.10
2024-05-09T15:41:41.358Z,4.35
2024-05-09T15:44:11.144Z,3.95
2024-05-09T15:46:38.417Z,5.10
2024-05-09T15:49:08.365Z,6.13
2024-05-09T15:51:38.288Z,7.72
2024-05-09T15:54:08.202Z,5.22
2024-05-09T15:56:35.565Z,7.45
2024-05-09T15:59:05.455Z,4.90
2024-05-09T16:01:32.880Z,4.43
2024-05-09T16:04:03.052Z,4.75
2024-05-09T16:06:30.538Z,7.35
2024-05-09T16:09:02.978Z,7.18
2024-05-09T16:11:30.143Z,5.67
2024-05-09T16:13:59.957Z,7.35
2024-05-09T16:16:27.242Z,4.70
2024-05-09T16:18:57.285Z,5.18
2024-05-09T16:21:24.479Z,4.10
2024-05-09T16:23:54.218Z,4.13
2024-05-09T16:26:24.064Z,7.40
2024-05-09T16:28:53.811Z,5.57
2024-05-09T16:31:21.097Z,4.57
2024-05-09T16:33:51.059Z,4.13
2024-05-09T16:36:18.410Z,5.63
2024-05-09T16:38:48.118Z,4.53
2024-05-09T16:41:15.571Z,4.95
2024-05-09T16:43:47.903Z,5.30
2024-05-09T16:46:15.123Z,6.10
2024-05-09T16:48:46.288Z,6.30
2024-05-09T16:51:13.517Z,6.72
2024-05-09T16:53:43.259Z,4.63
2024-05-09T16:56:10.559Z,4.38
2024-05-09T16:58:40.349Z,3.97
2024-05-09T17:01:13.538Z,4.15
2024-05-09T17:03:43.476Z,3.72
2024-05-09T17:06:11.175Z,5.05
2024-05-09T17:08:41.692Z,6.03
2024-05-09T17:11:08.973Z,5.97
2024-05-09T17:13:39.373Z,4.97
2024-05-09T17:16:15.478Z,4.90
2024-05-09T17:18:46.260Z,6.85
2024-05-09T17:21:13.832Z,5.07
2024-05-09T17:23:43.544Z,5.15
2024-05-09T17:26:10.811Z,5.25
2024-05-09T17:28:40.898Z,4.68
2024-05-09T17:31:11.058Z,5.75
2024-05-09T17:33:42.479Z,4.43
2024-05-09T17:36:09.926Z,4.80
2024-05-09T17:38:39.732Z,4.78
2024-05-09T17:41:06.900Z,4.22
2024-05-09T17:43:36.732Z,5.88
2024-05-09T17:46:04.492Z,5.90
2024-05-09T17:48:37.062Z,5.57
2024-05-09T17:51:04.729Z,5.03
2024-05-09T17:53:34.477Z,5.40
2024-05-09T17:56:02.236Z,4.32
2024-05-09T17:58:32.099Z,4.30
2024-05-09T18:00:59.488Z,6.60
2024-05-09T18:03:30.189Z,4.18
2024-05-09T18:06:00.350Z,6.15
2024-05-09T18:08:30.190Z,4.18
2024-05-09T18:10:59.154Z,5.50
2024-05-09T18:13:29.401Z,4.13
2024-05-09T18:15:56.627Z,5.25
2024-05-09T18:18:26.574Z,3.90
2024-05-09T18:20:53.892Z,5.55
2024-05-09T18:23:26.262Z,4.85
2024-05-09T18:25:56.378Z,5.38
2024-05-09T18:28:26.541Z,5.72
2024-05-09T18:30:53.847Z,5.00
2024-05-09T18:33:24.490Z,5.00
2024-05-09T18:35:51.901Z,5.00
2024-05-09T18:38:25.553Z,4.25
2024-05-09T18:40:55.636Z,4.45
2024-05-09T18:43:31.167Z,5.93
2024-05-09T18:46:03.511Z,4.07
2024-05-09T18:48:33.437Z,6.45
2024-05-09T18:51:00.819Z,4.53
2024-05-09T18:53:30.618Z,6.15
2024-05-09T18:56:00.777Z,5.10
2024-05-09T18:58:30.568Z,4.70
2024-05-09T19:00:59.975Z,5.03
2024-05-09T19:03:31.408Z,6.68
2024-05-09T19:05:59.153Z,4.40
2024-05-09T19:08:29.012Z,5.60
2024-05-09T19:10:57.335Z,6.18
2024-05-09T19:13:30.108Z,8.57
2024-05-09T19:15:57.637Z,20.55
2024-05-09T19:18:27.937Z,8.70
2024-05-09T19:20:55.153Z,16.27
2024-05-09T19:23:24.998Z,8.57
2024-05-09T19:25:52.156Z,7.15
2024-05-09T19:28:21.980Z,7.85
2024-05-09T19:30:51.853Z,10.55
2024-05-09T19:33:21.678Z,10.65
2024-05-09T19:35:48.930Z,8.75
2024-05-09T19:38:18.790Z,7.35
2024-05-09T19:40:46.069Z,7.03
2024-05-09T19:43:16.144Z,7.05
2024-05-09T19:45:43.786Z,9.00
2024-05-09T19:48:16.641Z,9.23
2024-05-09T19:50:45.423Z,7.97
2024-05-09T19:53:16.201Z,11.15
2024-05-09T19:55:43.649Z,8.95
2024-05-09T19:58:13.976Z,8.45
2024-05-09T20:00:43.236Z,7.88
2024-05-09T20:03:17.074Z,8.48
2024-05-09T20:05:46.794Z,8.20
2024-05-09T20:08:17.227Z,11.65
2024-05-09T20:10:44.635Z,10.98
2024-05-09T20:13:14.847Z,10.68
2024-05-09T20:15:42.375Z,7.78
2024-05-09T20:18:12.852Z,8.50
2024-05-09T20:20:44.685Z,7.47
2024-05-09T20:23:15.735Z,8.13
2024-05-09T20:25:43.007Z,9.35
2024-05-09T20:28:12.912Z,9.43
2024-05-09T20:30:40.338Z,8.60
2024-05-09T20:33:10.693Z,7.57
2024-05-09T20:35:38.110Z,9.45
2024-05-09T20:38:12.209Z,7.85
2024-05-09T20:40:40.151Z,10.65
2024-05-09T20:43:11.342Z,7.63
2024-05-09T20:45:39.337Z,7.35
2024-05-09T20:48:11.924Z,10.27
2024-05-09T20:50:41.805Z,7.22
2024-05-09T20:53:15.728Z,9.02
2024-05-09T20:55:43.487Z,9.68
2024-05-09T20:58:13.946Z,8.60
2024-05-09T21:00:44.501Z,8.63
2024-05-09T21:03:17.102Z,8.02
2024-05-09T21:05:46.069Z,10.10
2024-05-09T21:08:19.757Z,8.57
2024-05-09T21:10:47.417Z,11.75
2024-05-09T21:13:17.567Z,9.43
2024-05-09T21:15:44.819Z,12.13
2024-05-09T21:18:14.673Z,9.52
2024-05-09T21:20:42.115Z,11.15
2024-05-09T21:23:11.824Z,9.95
2024-05-09T21:25:41.620Z,9.82
2024-05-09T21:28:11.456Z,15.15
2024-05-09T21:30:42.279Z,9.07
2024-05-09T21:33:14.741Z,9.38
2024-05-09T21:35:43.615Z,9.35
2024-05-09T21:38:14.587Z,8.98
2024-05-09T21:40:45.343Z,9.00
2024-05-09T21:43:15.581Z,10.02
2024-05-09T21:45:43.298Z,10.63
2024-05-09T21:48:15.560Z,12.65
2024-05-09T21:50:42.972Z,9.63
2024-05-09T21:53:13.708Z,12.10
2024-05-09T21:55:44.450Z,9.60
2024-05-09T21:58:14.932Z,11.13
2024-05-09T22:00:45.686Z,8.02
2024-05-09T22:03:16.484Z,7.03
2024-05-09T22:05:45.021Z,9.15
2024-05-09T22:08:15.329Z,7.85
2024-05-09T22:10:45.229Z,9.70
2024-05-09T22:13:16.846Z,11.80
2024-05-09T22:15:44.297Z,8.95
2024-05-09T22:18:14.398Z,10.35
2024-05-09T22:20:45.343Z,9.57
2024-05-09T22:23:16.463Z,9.25
2024-05-09T22:25:46.264Z,9.07
2024-05-09T22:28:17.631Z,9.65
2024-05-09T22:30:47.056Z,9.05
2024-05-09T22:33:17.580Z,7.00
2024-05-09T22:35:45.246Z,9.52
2024-05-09T22:38:15.183Z,8.18
2024-05-09T22:40:47.801Z,9.02
2024-05-09T22:43:24.587Z,9.45
2024-05-09T22:45:52.993Z,9.23
2024-05-09T22:48:23.660Z,7.38
2024-05-09T22:50:51.438Z,11.10
2024-05-09T22:53:21.429Z,9.63
2024-05-09T22:55:48.626Z,10.82
2024-05-09T22:58:19.109Z,11.63
2024-05-09T23:00:49.183Z,10.65
2024-05-09T23:03:21.499Z,9.70
2024-05-09T23:05:49.112Z,11.32
2024-05-09T23:08:18.930Z,9.32
2024-05-09T23:10:46.305Z,12.32
2024-05-09T23:13:16.316Z,13.82
2024-05-09T23:15:43.670Z,9.50
2024-05-09T23:18:16.238Z,8.30
2024-05-09T23:20:43.656Z,10.15
2024-05-09T23:23:13.625Z,9.90
2024-05-09T23:25:41.925Z,10.40
2024-05-09T23:28:12.499Z,9.70
2024-05-09T23:30:41.272Z,8.32
2024-05-09T23:33:15.123Z,9.73
2024-05-09T23:38:12.305Z,9.50
2024-05-09T23:40:41.406Z,10.82
2024-05-09T23:43:13.125Z,7.88
2024-05-09T23:45:40.942Z,10.20
2024-05-09T23:48:11.767Z,11.00
2024-05-09T23:50:41.953Z,9.77
2024-05-09T23:53:11.791Z,9.13
2024-05-09T23:55:39.356Z,10.80
2024-05-09T23:58:09.811Z,9.00
